createdAt,value
2023-03-02T00:00:17.085Z,97984.44
2023-03-02T00:02:48.144Z,97973.38
2023-03-02T00:05:17.981Z,97982.84
2023-03-02T00:07:48.697Z,97979.47
2023-03-02T00:10:20.374Z,97983.00
2023-03-02T00:12:50.637Z,97975.50
2023-03-02T00:15:21.243Z,97985.06
2023-03-02T00:17:51.864Z,97992.78
2023-03-02T00:20:22.482Z,97989.22
2023-03-02T00:22:52.689Z,97990.44
2023-03-02T00:25:24.559Z,97979.75
2023-03-02T00:27:55.247Z,97977.72
2023-03-02T00:30:26.076Z,97980.56
2023-03-02T00:32:58.695Z,97984.72
2023-03-02T00:35:29.456Z,97980.53
2023-03-02T00:37:59.897Z,97983.44
2023-03-02T00:40:32.220Z,97993.31
2023-03-02T00:43:02.105Z,97992.72
2023-03-02T00:45:32.592Z,97984.50
2023-03-02T00:48:03.365Z,97990.13
2023-03-02T00:50:33.948Z,97982.38
2023-03-02T00:53:04.170Z,97979.06
2023-03-02T00:55:36.223Z,97979.81
2023-03-02T00:58:07.154Z,97977.72
2023-03-02T01:00:38.722Z,97974.00
2023-03-02T01:03:09.105Z,97970.81
2023-03-02T01:05:40.415Z,97979.50
2023-03-02T01:08:11.034Z,97964.66
2023-03-02T01:10:43.764Z,97965.56
2023-03-02T01:13:14.301Z,97956.06
2023-03-02T01:15:44.806Z,97967.19
2023-03-02T01:18:16.177Z,97960.72
2023-03-02T01:20:46.996Z,97953.94
2023-03-02T01:23:18.318Z,97953.56
2023-03-02T01:25:49.822Z,97956.31
2023-03-02T01:28:20.235Z,97946.22
2023-03-02T01:30:50.442Z,97952.13
2023-03-02T01:33:21.569Z,97953.53
2023-03-02T01:35:51.509Z,97950.31
2023-03-02T01:38:22.213Z,97950.75
2023-03-02T01:40:55.064Z,97949.22
2023-03-02T01:43:24.808Z,97945.28
2023-03-02T01:45:57.891Z,97947.81
2023-03-02T01:48:32.043Z,97954.06
2023-03-02T01:51:03.527Z,97947.88
2023-03-02T01:53:35.207Z,97955.13
2023-03-02T01:56:09.257Z,97952.47
2023-03-02T01:58:39.571Z,97958.03
2023-03-02T02:01:15.991Z,97951.34
2023-03-02T02:03:48.570Z,97955.22
2023-03-02T02:06:23.422Z,97950.97
2023-03-02T02:08:56.342Z,97946.16
2023-03-02T02:11:29.170Z,97950.53
2023-03-02T02:14:01.124Z,97952.91
2023-03-02T02:16:33.819Z,97947.56
2023-03-02T02:19:05.064Z,97946.69
2023-03-02T02:21:35.429Z,97949.81
2023-03-02T02:24:10.733Z,97949.38
2023-03-02T02:26:46.336Z,97946.31
2023-03-02T02:29:23.185Z,97953.44
2023-03-02T02:31:57.033Z,97947.72
2023-03-02T02:34:31.581Z,97956.72
2023-03-02T02:37:06.632Z,97955.59
2023-03-02T02:39:39.473Z,97953.16
2023-03-02T02:42:16.100Z,97947.84
2023-03-02T02:44:46.691Z,97939.03
2023-03-02T02:47:20.220Z,97944.72
2023-03-02T02:49:51.968Z,97940.69
2023-03-02T02:52:24.963Z,97941.41
2023-03-02T02:54:58.553Z,97947.22
2023-03-02T02:57:35.067Z,97947.41
2023-03-02T03:00:06.951Z,97937.69
2023-03-02T03:02:44.355Z,97931.50
2023-03-02T03:05:18.065Z,97942.03
2023-03-02T03:07:48.200Z,97933.56
2023-03-02T03:10:21.661Z,97936.81
2023-03-02T03:12:54.556Z,97940.13
2023-03-02T03:15:25.985Z,97929.44
2023-03-02T03:17:59.340Z,97928.19
2023-03-02T03:20:30.624Z,97925.25
2023-03-02T03:23:01.278Z,97923.44
2023-03-02T03:25:35.508Z,97930.78
2023-03-02T03:28:07.665Z,97930.75
2023-03-02T03:30:38.304Z,97924.22
2023-03-02T03:33:11.459Z,97918.59
2023-03-02T03:35:41.463Z,97925.31
2023-03-02T03:38:11.699Z,97920.22
2023-03-02T03:40:43.173Z,97924.94
2023-03-02T03:43:15.661Z,97924.44
2023-03-02T03:45:45.918Z,97917.25
2023-03-02T03:48:16.837Z,97921.91
2023-03-02T03:50:47.310Z,97919.81
2023-03-02T03:53:16.872Z,97919.34
2023-03-02T03:55:46.581Z,97919.97
2023-03-02T03:58:19.508Z,97909.03
2023-03-02T04:00:49.610Z,97914.53
2023-03-02T04:03:20.860Z,97915.22
2023-03-02T04:05:57.632Z,97919.09
2023-03-02T04:08:27.618Z,97917.72
2023-03-02T04:10:57.613Z,97911.84
2023-03-02T04:13:29.662Z,97910.69
2023-03-02T04:16:00.127Z,97904.50
2023-03-02T04:18:30.705Z,97900.34
2023-03-02T04:21:01.838Z,97901.41
2023-03-02T04:23:32.076Z,97890.63
2023-03-02T04:26:05.434Z,97889.13
2023-03-02T04:28:37.760Z,97886.09
2023-03-02T04:31:09.026Z,97885.78
2023-03-02T04:33:40.632Z,97882.78
2023-03-02T04:36:11.570Z,97880.09
2023-03-02T04:38:41.518Z,97883.50
2023-03-02T04:41:11.799Z,97877.78
2023-03-02T04:43:43.496Z,97878.66
2023-03-02T04:46:17.291Z,97878.91
2023-03-02T04:48:48.205Z,97872.09
2023-03-02T04:51:24.380Z,97876.47
2023-03-02T04:53:54.665Z,97874.75
2023-03-02T04:56:25.311Z,97869.22
2023-03-02T04:58:57.359Z,97873.06
2023-03-02T05:01:27.879Z,97877.88
2023-03-02T05:03:57.864Z,97873.06
2023-03-02T05:06:28.069Z,97873.06
2023-03-02T05:09:00.265Z,97880.56
2023-03-02T05:11:30.457Z,97878.75
2023-03-02T05:14:05.909Z,97879.00
2023-03-02T05:16:38.111Z,97873.03
2023-03-02T05:19:09.894Z,97875.03
2023-03-02T05:21:40.411Z,97873.06
2023-03-02T05:24:10.401Z,97878.22
2023-03-02T05:26:40.937Z,97877.63
2023-03-02T05:29:12.924Z,97872.44
2023-03-02T05:31:45.007Z,97870.44
2023-03-02T05:34:18.118Z,97870.84
2023-03-02T05:36:48.019Z,97876.06
2023-03-02T05:39:18.766Z,97871.56
2023-03-02T05:41:48.889Z,97881.66
2023-03-02T05:44:20.324Z,97889.28
2023-03-02T05:46:51.704Z,97884.28
2023-03-02T05:49:21.898Z,97887.31
2023-03-02T05:51:52.024Z,97890.69
2023-03-02T05:54:22.649Z,97890.47
2023-03-02T05:56:52.575Z,97890.53
2023-03-02T05:59:25.030Z,97889.03
2023-03-02T06:01:59.229Z,97902.22
2023-03-02T06:04:29.664Z,97892.75
2023-03-02T06:06:59.833Z,97899.47
2023-03-02T06:09:29.782Z,97900.00
2023-03-02T06:12:00.016Z,97892.16
2023-03-02T06:14:31.683Z,97892.69
2023-03-02T06:17:01.672Z,97904.31
2023-03-02T06:19:31.524Z,97904.53
2023-03-02T06:22:01.455Z,97910.78
2023-03-02T06:24:32.059Z,97900.09
2023-03-02T06:27:02.509Z,97904.78
2023-03-02T06:29:33.288Z,97902.00
2023-03-02T06:32:03.860Z,97904.34
2023-03-02T06:34:35.474Z,97898.81
2023-03-02T06:37:06.190Z,97906.47
2023-03-02T06:39:36.533Z,97909.19
2023-03-02T06:42:06.911Z,97904.97
2023-03-02T06:44:38.502Z,97902.22
2023-03-02T06:47:08.643Z,97900.31
2023-03-02T06:49:38.439Z,97901.81
2023-03-02T06:52:08.920Z,97906.97
2023-03-02T06:54:39.207Z,97903.09
2023-03-02T06:57:09.324Z,97904.78
2023-03-02T06:59:41.275Z,97904.44
2023-03-02T07:02:12.634Z,97896.22
2023-03-02T07:04:43.146Z,97897.16
2023-03-02T07:07:15.249Z,97903.53
2023-03-02T07:09:45.347Z,97901.91
2023-03-02T07:12:15.901Z,97901.50
2023-03-02T07:14:48.890Z,97900.00
2023-03-02T07:17:19.410Z,97906.38
2023-03-02T07:19:49.646Z,97905.50
2023-03-02T07:22:20.693Z,97911.69
2023-03-02T07:24:51.493Z,97910.59
2023-03-02T07:27:22.464Z,97907.22
2023-03-02T07:29:54.109Z,97916.88
2023-03-02T07:32:24.931Z,97910.25
2023-03-02T07:34:55.683Z,97901.19
2023-03-02T07:37:26.245Z,97912.63
2023-03-02T07:39:56.188Z,97912.69
2023-03-02T07:42:26.596Z,97919.56
2023-03-02T07:44:58.072Z,97918.44
2023-03-02T07:47:27.980Z,97920.69
2023-03-02T07:49:57.864Z,97922.97
2023-03-02T07:52:27.811Z,97920.09
2023-03-02T07:54:57.603Z,97917.97
2023-03-02T07:57:28.047Z,97909.91
2023-03-02T07:59:59.881Z,97913.53
2023-03-02T08:02:31.128Z,97909.56
2023-03-02T08:05:01.427Z,97909.06
2023-03-02T08:07:31.802Z,97910.28
2023-03-02T08:10:02.889Z,97909.56
2023-03-02T08:12:32.593Z,97908.25
2023-03-02T08:15:05.230Z,97916.22
2023-03-02T08:17:35.166Z,97907.69
2023-03-02T08:20:06.752Z,97911.50
2023-03-02T08:22:37.244Z,97914.31
2023-03-02T08:25:09.138Z,97910.41
2023-03-02T08:27:40.829Z,97905.97
2023-03-02T08:30:14.381Z,97916.06
2023-03-02T08:32:44.776Z,97913.16
2023-03-02T08:35:14.896Z,97919.88
2023-03-02T08:37:45.298Z,97914.94
2023-03-02T08:40:15.987Z,97914.03
2023-03-02T08:42:46.072Z,97910.06
2023-03-02T08:45:21.112Z,97906.66
2023-03-02T08:47:51.005Z,97904.94
2023-03-02T08:50:21.657Z,97901.25
2023-03-02T08:52:51.801Z,97901.19
2023-03-02T08:55:21.586Z,97896.38
2023-03-02T08:57:52.212Z,97899.16
2023-03-02T09:00:25.181Z,97899.72
2023-03-02T09:02:55.960Z,97899.72
2023-03-02T09:05:25.901Z,97898.47
2023-03-02T09:07:55.792Z,97900.13
2023-03-02T09:10:25.307Z,97899.94
2023-03-02T09:12:55.845Z,97902.50
2023-03-02T09:15:27.128Z,97900.03
2023-03-02T09:17:57.176Z,97898.72
2023-03-02T09:20:27.834Z,97902.25
2023-03-02T09:22:58.032Z,97904.34
2023-03-02T09:25:28.344Z,97896.91
2023-03-02T09:27:58.532Z,97900.72
2023-03-02T09:30:32.191Z,97897.53
2023-03-02T09:33:02.881Z,97897.50
2023-03-02T09:35:32.970Z,97902.13
2023-03-02T09:38:03.465Z,97896.66
2023-03-02T09:40:40.198Z,97893.06
2023-03-02T09:43:19.942Z,97894.69
2023-03-02T09:45:59.990Z,97896.31
2023-03-02T09:48:41.754Z,97892.47
2023-03-02T09:51:25.940Z,97889.34
2023-03-02T09:54:06.126Z,97891.69
2023-03-02T09:56:38.420Z,97893.22
2023-03-02T09:59:15.455Z,97893.75
2023-03-02T10:01:49.723Z,97899.69
2023-03-02T10:04:25.809Z,97895.69
2023-03-02T10:06:59.807Z,97893.50
2023-03-02T10:09:31.055Z,97894.44
2023-03-02T10:12:16.505Z,97896.84
2023-03-02T10:14:51.187Z,97894.84
2023-03-02T10:17:41.738Z,97896.56
2023-03-02T10:20:16.301Z,97896.50
2023-03-02T10:22:50.112Z,97892.59
2023-03-02T10:25:28.280Z,97897.03
2023-03-02T10:28:03.080Z,97890.78
2023-03-02T10:30:35.709Z,97883.59
2023-03-02T10:33:14.201Z,97901.38
2023-03-02T10:35:50.293Z,97900.69
2023-03-02T10:38:23.068Z,97889.75
2023-03-02T10:41:00.364Z,97900.56
2023-03-02T10:43:40.212Z,97896.66
2023-03-02T10:46:13.060Z,97897.72
2023-03-02T10:48:51.597Z,97893.25
2023-03-02T10:51:27.427Z,97891.28
2023-03-02T10:54:18.242Z,97883.53
2023-03-02T10:56:52.638Z,97888.25
2023-03-02T10:59:39.929Z,97880.59
2023-03-02T11:02:23.679Z,97877.59
2023-03-02T11:04:58.908Z,97880.94
2023-03-02T11:07:30.646Z,97872.06
2023-03-02T11:10:03.747Z,97876.94
2023-03-02T11:12:37.505Z,97882.66
2023-03-02T11:15:27.420Z,97876.81
2023-03-02T11:18:04.355Z,97885.91
2023-03-02T11:20:39.856Z,97874.78
2023-03-02T11:23:20.671Z,97876.06
2023-03-02T11:25:55.524Z,97874.13
2023-03-02T11:28:41.846Z,97870.34
2023-03-02T11:31:18.456Z,97864.09
2023-03-02T11:34:11.551Z,97856.00
2023-03-02T11:37:07.668Z,97860.78
2023-03-02T11:39:55.720Z,97848.09
2023-03-02T11:42:30.995Z,97844.19
2023-03-02T11:45:04.988Z,97847.94
2023-03-02T11:47:36.812Z,97838.81
2023-03-02T11:50:08.628Z,97836.13
2023-03-02T11:52:44.310Z,97832.59
2023-03-02T11:55:19.924Z,97842.81
2023-03-02T11:57:53.080Z,97841.03
2023-03-02T12:00:35.625Z,97838.47
2023-03-02T12:03:07.995Z,97840.03
2023-03-02T12:05:40.656Z,97829.59
2023-03-02T12:08:34.928Z,97829.97
2023-03-02T12:11:08.964Z,97836.84
2023-03-02T12:13:41.010Z,97829.06
2023-03-02T12:16:22.894Z,97827.63
2023-03-02T12:18:53.553Z,97819.97
2023-03-02T12:21:24.915Z,97819.97
2023-03-02T12:24:06.606Z,97818.84
2023-03-02T12:26:40.145Z,97818.84
2023-03-02T12:29:25.324Z,97814.22
2023-03-02T12:31:58.055Z,97809.19
2023-03-02T12:34:34.430Z,97811.53
2023-03-02T12:37:14.629Z,97814.97
2023-03-02T12:40:18.972Z,97807.66
2023-03-02T12:43:16.549Z,97807.66
2023-03-02T12:45:57.840Z,97798.47
2023-03-02T12:48:33.126Z,97800.31
2023-03-02T12:51:06.150Z,97803.75
2023-03-02T12:53:40.125Z,97804.88
2023-03-02T12:56:11.641Z,97807.22
2023-03-02T12:58:52.571Z,97799.09
2023-03-02T13:01:27.129Z,97799.91
2023-03-02T13:03:58.184Z,97789.91
2023-03-02T13:06:32.696Z,97791.44
2023-03-02T13:09:03.657Z,97794.50
2023-03-02T13:11:36.106Z,97786.06
2023-03-02T13:14:23.958Z,97786.88
2023-03-02T13:17:00.437Z,97776.81
2023-03-02T13:19:32.231Z,97776.03
2023-03-02T13:22:02.360Z,97775.28
2023-03-02T13:24:38.078Z,97771.84
2023-03-02T13:27:10.017Z,97775.31
2023-03-02T13:29:42.394Z,97763.72
2023-03-02T13:32:25.148Z,97762.94
2023-03-02T13:34:56.475Z,97760.63
2023-03-02T13:37:40.753Z,97754.47
2023-03-02T13:40:35.986Z,97752.16
2023-03-02T13:43:09.170Z,97751.78
2023-03-02T13:45:42.008Z,97748.31
2023-03-02T13:48:17.416Z,97743.66
2023-03-02T13:50:55.630Z,97742.53
2023-03-02T13:53:26.936Z,97738.28
2023-03-02T13:55:57.740Z,97743.69
2023-03-02T13:58:28.622Z,97741.75
2023-03-02T14:01:00.881Z,97743.69
2023-03-02T14:03:33.119Z,97733.66
2023-03-02T14:06:04.074Z,97733.66
2023-03-02T14:08:34.370Z,97728.25
2023-03-02T14:11:05.480Z,97729.38
2023-03-02T14:13:40.209Z,97728.59
2023-03-02T14:16:13.885Z,97730.16
2023-03-02T14:18:47.472Z,97730.53
2023-03-02T14:21:19.902Z,97733.25
2023-03-02T14:23:50.581Z,97729.78
2023-03-02T14:26:32.164Z,97736.75
2023-03-02T14:29:06.277Z,97728.25
2023-03-02T14:31:38.485Z,97719.00
2023-03-02T14:34:10.407Z,97715.13
2023-03-02T14:36:41.279Z,97708.16
2023-03-02T14:39:22.992Z,97716.66
2023-03-02T14:41:55.736Z,97713.56
2023-03-02T14:44:26.754Z,97706.25
2023-03-02T14:46:58.810Z,97706.66
2023-03-02T14:49:30.949Z,97705.06
2023-03-02T14:52:04.481Z,97703.53
2023-03-02T14:54:39.354Z,97698.88
2023-03-02T14:57:18.802Z,97696.97
2023-03-02T14:59:49.475Z,97698.13
2023-03-02T15:02:26.109Z,97693.09
2023-03-02T15:05:02.012Z,97697.38
2023-03-02T15:07:33.152Z,97694.69
2023-03-02T15:10:03.842Z,97696.63
2023-03-02T15:12:34.665Z,97698.16
2023-03-02T15:15:06.400Z,97694.28
2023-03-02T15:17:39.132Z,97698.13
2023-03-02T15:20:13.870Z,97700.47
2023-03-02T15:22:46.842Z,97696.22
2023-03-02T15:25:18.236Z,97700.47
2023-03-02T15:27:49.872Z,97702.75
2023-03-02T15:30:21.522Z,97696.63
2023-03-02T15:32:54.971Z,97697.78
2023-03-02T15:35:29.750Z,97706.66
2023-03-02T15:38:02.746Z,97698.94
2023-03-02T15:40:34.250Z,97697.41
2023-03-02T15:43:04.901Z,97695.81
2023-03-02T15:45:35.726Z,97698.53
2023-03-02T15:48:12.601Z,97699.69
2023-03-02T15:50:43.664Z,97696.25
2023-03-02T15:53:16.235Z,97694.69
2023-03-02T15:55:46.623Z,97695.06
2023-03-02T15:58:18.949Z,97692.38
2023-03-02T16:00:52.872Z,97692.75
2023-03-02T16:03:25.816Z,97698.94
2023-03-02T16:06:00.941Z,97701.63
2023-03-02T16:08:32.004Z,97695.44
2023-03-02T16:11:04.444Z,97697.38
2023-03-02T16:13:35.237Z,97700.47
2023-03-02T16:16:06.954Z,97695.06
2023-03-02T16:18:40.132Z,97698.16
2023-03-02T16:21:15.310Z,97696.59
2023-03-02T16:23:47.181Z,97700.06
2023-03-02T16:26:20.621Z,97705.13
2023-03-02T16:28:51.633Z,97698.94
2023-03-02T16:31:26.584Z,97703.56
2023-03-02T16:33:59.592Z,97698.56
2023-03-02T16:36:29.494Z,97704.31
2023-03-02T16:39:00.303Z,97702.78
2023-03-02T16:41:31.334Z,97704.34
2023-03-02T16:44:02.775Z,97709.75
2023-03-02T16:46:36.470Z,97713.19
2023-03-02T16:49:08.923Z,97702.00
2023-03-02T16:51:40.293Z,97720.53
2023-03-02T16:54:10.938Z,97720.94
2023-03-02T16:56:45.379Z,97719.38
2023-03-02T16:59:16.004Z,97717.47
2023-03-02T17:01:46.166Z,97730.56
2023-03-02T17:04:18.923Z,97725.94
2023-03-02T17:07:03.889Z,97727.09
2023-03-02T17:09:36.285Z,97722.06
2023-03-02T17:12:08.338Z,97731.34
2023-03-02T17:14:42.217Z,97734.41
2023-03-02T17:17:12.690Z,97732.88
2023-03-02T17:19:44.687Z,97730.56
2023-03-02T17:22:15.115Z,97735.16
2023-03-02T17:24:45.570Z,97741.75
2023-03-02T17:27:24.863Z,97734.41
2023-03-02T17:29:56.691Z,97729.00
2023-03-02T17:32:27.414Z,97730.53
2023-03-02T17:34:58.923Z,97739.03
2023-03-02T17:37:30.583Z,97739.03
2023-03-02T17:40:01.277Z,97746.38
2023-03-02T17:42:31.478Z,97747.53
2023-03-02T17:45:02.461Z,97741.34
2023-03-02T17:47:33.663Z,97743.69
2023-03-02T17:50:13.260Z,97744.03
2023-03-02T17:52:44.368Z,97745.97
2023-03-02T17:55:16.538Z,97745.97
2023-03-02T17:57:47.169Z,97745.97
2023-03-02T18:00:21.382Z,97750.59
2023-03-02T18:02:51.902Z,97756.00
2023-03-02T18:05:24.293Z,97745.97
2023-03-02T18:07:54.854Z,97758.28
2023-03-02T18:10:24.865Z,97752.91
2023-03-02T18:12:57.288Z,97747.53
2023-03-02T18:15:30.074Z,97749.03
2023-03-02T18:18:01.301Z,97752.13
2023-03-02T18:20:33.604Z,97754.47
2023-03-02T18:23:03.803Z,97759.88
2023-03-02T18:25:34.547Z,97755.22
2023-03-02T18:28:04.400Z,97757.91
2023-03-02T18:30:35.657Z,97757.53
2023-03-02T18:33:06.078Z,97753.69
2023-03-02T18:35:39.366Z,97755.63
2023-03-02T18:38:09.728Z,97751.34
2023-03-02T18:40:40.107Z,97755.22
2023-03-02T18:43:10.645Z,97754.06
2023-03-02T18:45:41.150Z,97753.69
2023-03-02T18:48:11.066Z,97753.66
2023-03-02T18:50:42.717Z,97749.44
2023-03-02T18:53:13.086Z,97759.06
2023-03-02T18:55:43.543Z,97750.59
2023-03-02T18:58:20.196Z,97756.00
2023-03-02T19:00:51.111Z,97758.31
2023-03-02T19:03:23.068Z,97756.69
2023-03-02T19:05:57.893Z,97759.81
2023-03-02T19:08:30.591Z,97760.13
2023-03-02T19:11:01.110Z,97756.63
2023-03-02T19:13:31.679Z,97761.31
2023-03-02T19:16:02.938Z,97757.88
2023-03-02T19:18:34.696Z,97758.63
2023-03-02T19:21:08.351Z,97765.22
2023-03-02T19:23:39.036Z,97758.25
2023-03-02T19:26:11.052Z,97761.16
2023-03-02T19:28:41.488Z,97762.81
2023-03-02T19:31:13.954Z,97766.38
2023-03-02T19:33:45.502Z,97768.22
2023-03-02T19:36:17.020Z,97768.25
2023-03-02T19:38:47.246Z,97764.72
2023-03-02T19:41:20.221Z,97759.41
2023-03-02T19:43:50.930Z,97761.28
2023-03-02T19:46:21.171Z,97760.50
2023-03-02T19:48:50.943Z,97765.88
2023-03-02T19:51:22.393Z,97762.00
2023-03-02T19:53:54.016Z,97760.88
2023-03-02T19:56:27.671Z,97764.34
2023-03-02T19:58:58.213Z,97761.13
2023-03-02T20:01:32.320Z,97767.34
2023-03-02T20:04:03.195Z,97764.19
2023-03-02T20:06:37.251Z,97766.56
2023-03-02T20:09:08.752Z,97767.69
2023-03-02T20:11:39.577Z,97765.44
2023-03-02T20:14:12.030Z,97767.28
2023-03-02T20:16:42.272Z,97765.75
2023-03-02T20:19:14.349Z,97769.66
2023-03-02T20:21:46.708Z,97762.69
2023-03-02T20:24:17.321Z,97758.16
2023-03-02T20:26:47.852Z,97762.81
2023-03-02T20:29:18.499Z,97771.34
2023-03-02T20:31:49.554Z,97769.34
2023-03-02T20:34:20.110Z,97770.09
2023-03-02T20:36:52.162Z,97773.59
2023-03-02T20:39:26.061Z,97771.31
2023-03-02T20:41:56.918Z,97766.19
2023-03-02T20:44:31.220Z,97761.97
2023-03-02T20:47:05.000Z,97763.97
2023-03-02T20:49:38.278Z,97761.97
2023-03-02T20:52:10.897Z,97761.22
2023-03-02T20:54:43.437Z,97755.84
2023-03-02T20:57:16.977Z,97754.25
2023-03-02T20:59:47.606Z,97758.16
2023-03-02T21:02:18.680Z,97749.66
2023-03-02T21:04:50.607Z,97747.34
2023-03-02T21:07:22.141Z,97742.69
2023-03-02T21:09:53.113Z,97745.81
2023-03-02T21:12:24.006Z,97741.97
2023-03-02T21:14:54.394Z,97744.22
2023-03-02T21:17:25.185Z,97738.41
2023-03-02T21:19:56.292Z,97737.97
2023-03-02T21:22:28.591Z,97733.41
2023-03-02T21:24:59.920Z,97737.97
2023-03-02T21:27:31.011Z,97722.56
2023-03-02T21:30:06.834Z,97720.72
2023-03-02T21:32:38.392Z,97714.88
2023-03-02T21:35:10.539Z,97727.31
2023-03-02T21:37:42.536Z,97713.44
2023-03-02T21:40:17.641Z,97715.34
2023-03-02T21:42:48.007Z,97719.97
2023-03-02T21:45:21.392Z,97711.50
2023-03-02T21:47:53.472Z,97718.09
2023-03-02T21:50:27.486Z,97715.38
2023-03-02T21:52:59.613Z,97718.06
2023-03-02T21:55:31.288Z,97711.88
2023-03-02T21:58:02.265Z,97711.91
2023-03-02T22:00:35.081Z,97706.91
2023-03-02T22:03:05.777Z,97700.75
2023-03-02T22:05:36.598Z,97705.75
2023-03-02T22:08:08.652Z,97706.88
2023-03-02T22:10:43.835Z,97711.50
2023-03-02T22:13:21.527Z,97704.94
2023-03-02T22:15:53.268Z,97705.28
2023-03-02T22:18:26.489Z,97701.84
2023-03-02T22:20:56.640Z,97705.28
2023-03-02T22:23:28.666Z,97702.56
2023-03-02T22:26:18.991Z,97701.03
2023-03-02T22:28:49.399Z,97697.94
2023-03-02T22:31:22.637Z,97697.56
2023-03-02T22:33:52.616Z,97697.97
2023-03-02T22:36:26.172Z,97697.19
2023-03-02T22:39:14.310Z,97699.84
2023-03-02T22:41:44.375Z,97700.22
2023-03-02T22:44:15.471Z,97693.31
2023-03-02T22:46:45.935Z,97699.91
2023-03-02T22:49:19.162Z,97694.91
2023-03-02T22:51:49.026Z,97698.72
2023-03-02T22:54:25.531Z,97688.34
2023-03-02T22:56:57.217Z,97688.72
2023-03-02T22:59:28.059Z,97688.34
2023-03-02T23:02:02.009Z,97688.00
2023-03-02T23:04:37.364Z,97686.47
2023-03-02T23:07:15.803Z,97685.66
2023-03-02T23:09:47.764Z,97681.03
2023-03-02T23:12:21.936Z,97684.09
2023-03-02T23:14:54.142Z,97687.16
2023-03-02T23:17:29.572Z,97684.09
2023-03-02T23:20:00.239Z,97678.28
2023-03-02T23:22:32.040Z,97678.94
2023-03-02T23:25:04.434Z,97671.69
2023-03-02T23:27:35.176Z,97670.03
2023-03-02T23:30:06.311Z,97668.94
2023-03-02T23:32:36.831Z,97672.44
2023-03-02T23:35:07.161Z,97671.69
2023-03-02T23:37:37.693Z,97667.00
2023-03-02T23:40:12.891Z,97657.03
2023-03-02T23:42:42.802Z,97661.66
2023-03-02T23:45:14.024Z,97654.72
2023-03-02T23:47:44.913Z,97661.66
2023-03-02T23:50:16.116Z,97665.56
2023-03-02T23:52:45.981Z,97665.16
2023-03-02T23:55:17.462Z,97660.94
2023-03-02T23:57:47.721Z,97652.78
